sensor_id;sensor_type;location;lat;lon;timestamp;pressure;altitude;pressure_sealevel;temperature;humidity
60820;BME280;46641;48.904;9.126;2023-05-14T00:04:13;98592.22;;;18.41;52.63
60820;BME280;46641;48.904;9.126;2023-05-14T00:09:04;98585.88;;;18.36;52.78
60820;BME280;46641;48.904;9.126;2023-05-14T00:13:55;98566.91;;;18.32;52.66
60820;BME280;46641;48.904;9.126;2023-05-14T00:18:45;98573.00;;;18.33;52.49
60820;BME280;46641;48.904;9.126;2023-05-14T00:23:35;98562.41;;;18.33;52.69
60820;BME280;46641;48.904;9.126;2023-05-14T00:28:26;98556.50;;;18.31;52.90
60820;BME280;46641;48.904;9.126;2023-05-14T00:33:16;98553.44;;;18.27;52.93
60820;BME280;46641;48.904;9.126;2023-05-14T00:38:06;98547.09;;;18.21;52.99
60820;BME280;46641;48.904;9.126;2023-05-14T00:42:57;98545.47;;;18.20;52.90
60820;BME280;46641;48.904;9.126;2023-05-14T00:47:48;98547.09;;;18.21;52.82
60820;BME280;46641;48.904;9.126;2023-05-14T00:52:39;98548.66;;;18.16;53.11
60820;BME280;46641;48.904;9.126;2023-05-14T00:57:29;98553.16;;;18.15;53.07
60820;BME280;46641;48.904;9.126;2023-05-14T01:02:20;98548.25;;;18.12;53.10
60820;BME280;46641;48.904;9.126;2023-05-14T01:12:51;98527.66;;;18.08;53.28
60820;BME280;46641;48.904;9.126;2023-05-14T01:17:56;98546.16;;;18.01;53.18
60820;BME280;46641;48.904;9.126;2023-05-14T01:22:48;98534.94;;;17.99;53.19
60820;BME280;46641;48.904;9.126;2023-05-14T01:32:43;98530.41;;;17.93;53.15
60820;BME280;46641;48.904;9.126;2023-05-14T01:37:38;98525.69;;;17.88;53.17
60820;BME280;46641;48.904;9.126;2023-05-14T01:42:31;98528.53;;;17.87;53.44
60820;BME280;46641;48.904;9.126;2023-05-14T01:47:21;98528.31;;;17.82;53.25
60820;BME280;46641;48.904;9.126;2023-05-14T01:52:12;98522.38;;;17.80;53.57
60820;BME280;46641;48.904;9.126;2023-05-14T01:57:02;98526.84;;;17.79;53.36
60820;BME280;46641;48.904;9.126;2023-05-14T02:01:52;98530.53;;;17.78;53.22
60820;BME280;46641;48.904;9.126;2023-05-14T02:06:43;98523.13;;;17.73;53.44
60820;BME280;46641;48.904;9.126;2023-05-14T02:11:33;98515.56;;;17.70;53.24
60820;BME280;46641;48.904;9.126;2023-05-14T02:16:23;98524.25;;;17.64;53.44
60820;BME280;46641;48.904;9.126;2023-05-14T02:21:14;98526.31;;;17.62;53.41
60820;BME280;46641;48.904;9.126;2023-05-14T02:26:04;98524.66;;;17.61;53.58
60820;BME280;46641;48.904;9.126;2023-05-14T02:30:58;98524.22;;;17.58;53.50
60820;BME280;46641;48.904;9.126;2023-05-14T02:35:50;98537.00;;;17.54;53.53
60820;BME280;46641;48.904;9.126;2023-05-14T02:40:40;98529.88;;;17.55;53.42
60820;BME280;46641;48.904;9.126;2023-05-14T02:45:30;98528.66;;;17.50;53.68
60820;BME280;46641;48.904;9.126;2023-05-14T02:50:21;98535.13;;;17.48;53.47
60820;BME280;46641;48.904;9.126;2023-05-14T02:55:11;98537.78;;;17.48;53.50
60820;BME280;46641;48.904;9.126;2023-05-14T03:00:02;98541.66;;;17.45;53.63
60820;BME280;46641;48.904;9.126;2023-05-14T03:04:53;98541.59;;;17.39;53.49
60820;BME280;46641;48.904;9.126;2023-05-14T03:09:43;98537.50;;;17.36;53.85
60820;BME280;46641;48.904;9.126;2023-05-14T03:14:34;98540.69;;;17.32;53.67
60820;BME280;46641;48.904;9.126;2023-05-14T03:19:24;98538.03;;;17.32;53.76
60820;BME280;46641;48.904;9.126;2023-05-14T03:24:14;98534.59;;;17.31;53.72
60820;BME280;46641;48.904;9.126;2023-05-14T03:29:05;98534.59;;;17.31;53.72
60820;BME280;46641;48.904;9.126;2023-05-14T03:33:55;98536.78;;;17.27;53.80
60820;BME280;46641;48.904;9.126;2023-05-14T03:38:45;98533.50;;;17.25;53.74
60820;BME280;46641;48.904;9.126;2023-05-14T03:43:36;98534.53;;;17.24;53.56
60820;BME280;46641;48.904;9.126;2023-05-14T03:48:26;98531.28;;;17.22;53.61
60820;BME280;46641;48.904;9.126;2023-05-14T03:53:16;98533.28;;;17.20;53.89
60820;BME280;46641;48.904;9.126;2023-05-14T03:58:06;98519.41;;;17.18;53.83
60820;BME280;46641;48.904;9.126;2023-05-14T04:03:02;98532.03;;;17.16;53.82
60820;BME280;46641;48.904;9.126;2023-05-14T04:07:53;98527.34;;;17.18;53.64
60820;BME280;46641;48.904;9.126;2023-05-14T04:12:43;98531.59;;;17.13;53.99
60820;BME280;46641;48.904;9.126;2023-05-14T04:17:33;98533.38;;;17.12;53.67
60820;BME280;46641;48.904;9.126;2023-05-14T04:22:23;98538.06;;;17.10;53.93
60820;BME280;46641;48.904;9.126;2023-05-14T04:27:19;98528.47;;;17.09;53.85
60820;BME280;46641;48.904;9.126;2023-05-14T04:32:10;98529.50;;;17.08;53.88
60820;BME280;46641;48.904;9.126;2023-05-14T04:37:01;98527.84;;;17.07;53.81
60820;BME280;46641;48.904;9.126;2023-05-14T04:41:52;98525.22;;;17.07;53.78
60820;BME280;46641;48.904;9.126;2023-05-14T04:46:43;98532.34;;;17.07;53.90
60820;BME280;46641;48.904;9.126;2023-05-14T04:51:33;98537.78;;;17.05;53.93
60820;BME280;46641;48.904;9.126;2023-05-14T04:56:24;98534.53;;;17.03;53.94
60820;BME280;46641;48.904;9.126;2023-05-14T05:01:14;98541.84;;;17.01;54.12
60820;BME280;46641;48.904;9.126;2023-05-14T05:06:05;98541.47;;;17.04;54.01
60820;BME280;46641;48.904;9.126;2023-05-14T05:10:55;98530.22;;;17.02;54.02
60820;BME280;46641;48.904;9.126;2023-05-14T05:15:45;98534.28;;;16.98;54.02
60820;BME280;46641;48.904;9.126;2023-05-14T05:20:35;98538.75;;;16.97;54.26
60820;BME280;46641;48.904;9.126;2023-05-14T05:25:26;98529.78;;;16.98;54.00
60820;BME280;46641;48.904;9.126;2023-05-14T05:30:16;98530.59;;;16.99;54.14
60820;BME280;46641;48.904;9.126;2023-05-14T05:35:07;98528.16;;;16.97;53.97
60820;BME280;46641;48.904;9.126;2023-05-14T05:39:57;98524.50;;;16.98;54.03
60820;BME280;46641;48.904;9.126;2023-05-14T05:44:48;98532.28;;;17.00;53.98
60820;BME280;46641;48.904;9.126;2023-05-14T05:49:38;98532.28;;;17.00;53.95
60820;BME280;46641;48.904;9.126;2023-05-14T05:54:29;98530.06;;;17.03;53.79
60820;BME280;46641;48.904;9.126;2023-05-14T05:59:21;98527.59;;;17.02;54.07
60820;BME280;46641;48.904;9.126;2023-05-14T06:04:11;98526.97;;;17.00;54.22
60820;BME280;46641;48.904;9.126;2023-05-14T06:09:01;98526.97;;;17.00;54.19
60820;BME280;46641;48.904;9.126;2023-05-14T06:13:52;98527.59;;;17.02;53.95
60820;BME280;46641;48.904;9.126;2023-05-14T06:18:42;98530.22;;;17.02;54.21
60820;BME280;46641;48.904;9.126;2023-05-14T06:23:33;98529.25;;;17.03;54.18
60820;BME280;46641;48.904;9.126;2023-05-14T06:28:23;98529.06;;;17.04;54.09
60820;BME280;46641;48.904;9.126;2023-05-14T06:33:13;98535.16;;;17.05;54.13
60820;BME280;46641;48.904;9.126;2023-05-14T06:38:04;98527.66;;;17.09;54.05
60820;BME280;46641;48.904;9.126;2023-05-14T06:42:54;98530.13;;;17.10;54.20
60820;BME280;46641;48.904;9.126;2023-05-14T06:47:44;98523.19;;;17.09;54.19
60820;BME280;46641;48.904;9.126;2023-05-14T06:52:35;98525.44;;;17.12;54.13
60820;BME280;46641;48.904;9.126;2023-05-14T06:57:26;98518.38;;;17.13;54.00
60820;BME280;46641;48.904;9.126;2023-05-14T07:02:16;98522.25;;;17.17;53.96
60820;BME280;46641;48.904;9.126;2023-05-14T07:07:06;98521.88;;;17.20;53.91
60820;BME280;46641;48.904;9.126;2023-05-14T07:11:56;98517.03;;;17.23;53.92
60820;BME280;46641;48.904;9.126;2023-05-14T07:16:47;98519.84;;;17.22;54.00
60820;BME280;46641;48.904;9.126;2023-05-14T07:21:37;98525.56;;;17.25;53.86
60820;BME280;46641;48.904;9.126;2023-05-14T07:26:27;98529.50;;;17.29;53.82
60820;BME280;46641;48.904;9.126;2023-05-14T07:31:18;98522.38;;;17.30;54.08
60820;BME280;46641;48.904;9.126;2023-05-14T07:36:08;98505.09;;;17.34;53.71
60820;BME280;46641;48.904;9.126;2023-05-14T07:40:58;98497.59;;;17.38;53.99
60820;BME280;46641;48.904;9.126;2023-05-14T07:45:49;98499.31;;;17.45;53.45
60820;BME280;46641;48.904;9.126;2023-05-14T07:50:39;98506.88;;;17.48;53.61
60820;BME280;46641;48.904;9.126;2023-05-14T07:55:29;98506.22;;;17.46;54.00
60820;BME280;46641;48.904;9.126;2023-05-14T08:00:20;98506.44;;;17.51;53.60
60820;BME280;46641;48.904;9.126;2023-05-14T08:05:11;98498.59;;;17.58;53.57
60820;BME280;46641;48.904;9.126;2023-05-14T08:10:01;98494.59;;;17.69;53.30
60820;BME280;46641;48.904;9.126;2023-05-14T08:14:52;98493.63;;;17.77;53.18
60820;BME280;46641;48.904;9.126;2023-05-14T08:19:42;98496.72;;;17.80;53.19
60820;BME280;46641;48.904;9.126;2023-05-14T08:24:33;98493.06;;;17.81;53.14
60820;BME280;46641;48.904;9.126;2023-05-14T08:29:23;98475.56;;;17.87;53.28
60820;BME280;46641;48.904;9.126;2023-05-14T08:34:14;98470.69;;;17.90;53.22
60820;BME280;46641;48.904;9.126;2023-05-14T08:39:05;98477.25;;;17.94;53.19
60820;BME280;46641;48.904;9.126;2023-05-14T08:44:05;98476.66;;;17.99;53.19
60820;BME280;46641;48.904;9.126;2023-05-14T08:49:06;98472.03;;;18.08;53.21
60820;BME280;46641;48.904;9.126;2023-05-14T08:54:01;98471.63;;;18.11;53.25
60820;BME280;46641;48.904;9.126;2023-05-14T08:58:51;98476.97;;;18.17;53.11
60820;BME280;46641;48.904;9.126;2023-05-14T09:03:42;98462.94;;;18.24;52.99
60820;BME280;46641;48.904;9.126;2023-05-14T09:08:33;98467.25;;;18.31;52.70
60820;BME280;46641;48.904;9.126;2023-05-14T09:13:25;98464.59;;;18.38;52.67
60820;BME280;46641;48.904;9.126;2023-05-14T09:18:16;98458.69;;;18.42;52.98
60820;BME280;46641;48.904;9.126;2023-05-14T09:23:06;98460.56;;;18.49;53.04
60820;BME280;46641;48.904;9.126;2023-05-14T09:27:57;98455.69;;;18.59;52.79
60820;BME280;46641;48.904;9.126;2023-05-14T09:32:47;98451.84;;;18.68;52.66
60820;BME280;46641;48.904;9.126;2023-05-14T09:37:43;98453.53;;;18.76;52.94
60820;BME280;46641;48.904;9.126;2023-05-14T09:42:34;98448.66;;;18.86;53.55
60820;BME280;46641;48.904;9.126;2023-05-14T09:47:24;98440.88;;;18.91;53.68
60820;BME280;46641;48.904;9.126;2023-05-14T09:52:17;98436.44;;;18.98;53.14
60820;BME280;46641;48.904;9.126;2023-05-14T09:57:08;98438.69;;;19.08;53.29
60820;BME280;46641;48.904;9.126;2023-05-14T10:01:59;98424.56;;;19.14;54.08
60820;BME280;46641;48.904;9.126;2023-05-14T10:06:50;98432.75;;;19.26;54.29
60820;BME280;46641;48.904;9.126;2023-05-14T10:11:42;98431.09;;;19.38;54.66
60820;BME280;46641;48.904;9.126;2023-05-14T10:16:36;98435.19;;;19.47;54.31
60820;BME280;46641;48.904;9.126;2023-05-14T10:21:30;98432.28;;;19.55;54.52
60820;BME280;46641;48.904;9.126;2023-05-14T10:26:24;98429.06;;;19.67;54.67
60820;BME280;46641;48.904;9.126;2023-05-14T10:31:14;98434.13;;;19.75;54.18
60820;BME280;46641;48.904;9.126;2023-05-14T10:36:08;98435.94;;;19.81;54.03
60820;BME280;46641;48.904;9.126;2023-05-14T10:41:04;98434.09;;;19.88;54.16
60820;BME280;46641;48.904;9.126;2023-05-14T10:45:54;98421.00;;;19.93;53.65
60820;BME280;46641;48.904;9.126;2023-05-14T10:50:47;98422.22;;;19.97;53.75
60820;BME280;46641;48.904;9.126;2023-05-14T10:55:38;98418.94;;;20.02;53.70
60820;BME280;46641;48.904;9.126;2023-05-14T11:00:28;98405.81;;;20.07;53.50
60820;BME280;46641;48.904;9.126;2023-05-14T11:05:22;98393.53;;;20.13;53.52
60820;BME280;46641;48.904;9.126;2023-05-14T11:10:14;98390.47;;;20.16;53.36
60820;BME280;46641;48.904;9.126;2023-05-14T11:15:07;98385.72;;;20.18;53.37
60820;BME280;46641;48.904;9.126;2023-05-14T11:19:58;98374.25;;;20.24;53.72
60820;BME280;46641;48.904;9.126;2023-05-14T11:24:49;98380.53;;;20.36;53.62
60820;BME280;46641;48.904;9.126;2023-05-14T11:29:43;98380.88;;;20.46;53.58
60820;BME280;46641;48.904;9.126;2023-05-14T11:34:34;98376.34;;;20.53;53.63
60820;BME280;46641;48.904;9.126;2023-05-14T11:39:25;98366.50;;;20.61;53.60
60820;BME280;46641;48.904;9.126;2023-05-14T11:44:16;98368.69;;;20.70;53.03
60820;BME280;46641;48.904;9.126;2023-05-14T11:49:06;98361.25;;;20.79;53.28
60820;BME280;46641;48.904;9.126;2023-05-14T11:53:56;98354.00;;;20.86;53.22
60820;BME280;46641;48.904;9.126;2023-05-14T11:58:48;98353.09;;;20.99;53.27
60820;BME280;46641;48.904;9.126;2023-05-14T12:03:38;98350.16;;;21.07;53.35
60820;BME280;46641;48.904;9.126;2023-05-14T12:08:29;98353.81;;;21.13;53.36
60820;BME280;46641;48.904;9.126;2023-05-14T12:13:21;98340.44;;;21.19;53.38
60820;BME280;46641;48.904;9.126;2023-05-14T12:18:16;98338.28;;;21.28;53.37
60820;BME280;46641;48.904;9.126;2023-05-14T12:23:09;98331.78;;;21.24;52.98
60820;BME280;46641;48.904;9.126;2023-05-14T12:28:00;98333.44;;;20.43;48.04
60820;BME280;46641;48.904;9.126;2023-05-14T12:32:50;98329.84;;;20.31;52.02
60820;BME280;46641;48.904;9.126;2023-05-14T12:37:42;98323.00;;;20.80;51.93
60820;BME280;46641;48.904;9.126;2023-05-14T12:42:32;98315.19;;;21.04;51.80
60820;BME280;46641;48.904;9.126;2023-05-14T12:47:22;98319.06;;;21.26;51.44
60820;BME280;46641;48.904;9.126;2023-05-14T12:52:13;98309.78;;;21.35;51.35
60820;BME280;46641;48.904;9.126;2023-05-14T12:57:03;98298.47;;;21.40;51.21
60820;BME280;46641;48.904;9.126;2023-05-14T13:01:53;98299.88;;;21.42;51.20
60820;BME280;46641;48.904;9.126;2023-05-14T13:06:43;98294.53;;;21.42;51.33
60820;BME280;46641;48.904;9.126;2023-05-14T13:11:34;98289.06;;;21.37;51.93
60820;BME280;46641;48.904;9.126;2023-05-14T13:16:27;98283.53;;;21.39;51.71
60820;BME280;46641;48.904;9.126;2023-05-14T13:21:17;98288.63;;;21.40;50.94
60820;BME280;46641;48.904;9.126;2023-05-14T13:26:07;98281.88;;;21.38;51.48
60820;BME280;46641;48.904;9.126;2023-05-14T13:31:05;98277.75;;;21.42;51.88
60820;BME280;46641;48.904;9.126;2023-05-14T13:35:56;98273.00;;;21.44;51.81
60820;BME280;46641;48.904;9.126;2023-05-14T13:40:46;98266.44;;;21.46;51.91
60820;BME280;46641;48.904;9.126;2023-05-14T13:45:36;98263.91;;;21.52;51.53
60820;BME280;46641;48.904;9.126;2023-05-14T13:50:27;98264.28;;;21.55;51.17
60820;BME280;46641;48.904;9.126;2023-05-14T13:55:17;98259.16;;;21.54;51.46
60820;BME280;46641;48.904;9.126;2023-05-14T14:00:08;98248.06;;;21.57;51.32
60820;BME280;46641;48.904;9.126;2023-05-14T14:04:58;98250.06;;;21.61;51.44
60820;BME280;46641;48.904;9.126;2023-05-14T14:09:48;98233.41;;;21.66;51.69
60820;BME280;46641;48.904;9.126;2023-05-14T14:14:39;98227.63;;;21.69;51.71
60820;BME280;46641;48.904;9.126;2023-05-14T14:19:29;98223.91;;;21.70;51.43
60820;BME280;46641;48.904;9.126;2023-05-14T14:24:19;98220.22;;;21.71;51.30
60820;BME280;46641;48.904;9.126;2023-05-14T14:29:09;98213.84;;;21.72;51.80
60820;BME280;46641;48.904;9.126;2023-05-14T14:34:00;98220.00;;;21.73;51.69
60820;BME280;46641;48.904;9.126;2023-05-14T14:38:50;98223.25;;;21.75;51.50
60820;BME280;46641;48.904;9.126;2023-05-14T14:43:40;98230.19;;;21.76;51.51
60820;BME280;46641;48.904;9.126;2023-05-14T14:48:33;98218.28;;;21.78;51.64
60820;BME280;46641;48.904;9.126;2023-05-14T14:53:26;98222.34;;;21.81;51.48
60820;BME280;46641;48.904;9.126;2023-05-14T14:58:17;98221.50;;;21.80;51.51
60820;BME280;46641;48.904;9.126;2023-05-14T15:03:08;98218.63;;;21.82;51.38
60820;BME280;46641;48.904;9.126;2023-05-14T15:07:59;98209.38;;;21.84;51.51
60820;BME280;46641;48.904;9.126;2023-05-14T15:12:49;98213.41;;;21.87;51.46
60820;BME280;46641;48.904;9.126;2023-05-14T15:17:40;98210.53;;;21.88;51.50
60820;BME280;46641;48.904;9.126;2023-05-14T15:22:30;98206.63;;;21.91;51.34
60820;BME280;46641;48.904;9.126;2023-05-14T15:27:20;98201.28;;;21.91;51.29
60820;BME280;46641;48.904;9.126;2023-05-14T15:32:11;98208.47;;;21.90;51.40
60820;BME280;46641;48.904;9.126;2023-05-14T15:37:01;98205.91;;;21.96;51.24
60820;BME280;46641;48.904;9.126;2023-05-14T15:41:51;98212.31;;;21.94;50.77
60820;BME280;46641;48.904;9.126;2023-05-14T15:46:42;98204.16;;;21.89;50.56
60820;BME280;46641;48.904;9.126;2023-05-14T15:51:33;98205.22;;;21.88;51.13
60820;BME280;46641;48.904;9.126;2023-05-14T15:56:23;98196.16;;;21.89;50.73
60820;BME280;46641;48.904;9.126;2023-05-14T16:01:13;98204.97;;;21.90;50.20
60820;BME280;46641;48.904;9.126;2023-05-14T16:06:04;98199.06;;;21.88;50.57
60820;BME280;46641;48.904;9.126;2023-05-14T16:10:54;98198.63;;;21.91;49.96
60820;BME280;46641;48.904;9.126;2023-05-14T16:15:44;98191.44;;;21.91;50.14
60820;BME280;46641;48.904;9.126;2023-05-14T16:20:35;98190.75;;;21.96;49.93
60820;BME280;46641;48.904;9.126;2023-05-14T16:25:25;98189.94;;;21.96;47.37
60820;BME280;46641;48.904;9.126;2023-05-14T16:30:15;98182.97;;;21.53;49.64
60820;BME280;46641;48.904;9.126;2023-05-14T16:35:06;98186.69;;;21.93;48.92
60820;BME280;46641;48.904;9.126;2023-05-14T16:39:56;98185.44;;;22.08;48.66
60820;BME280;46641;48.904;9.126;2023-05-14T16:44:46;98184.31;;;22.15;48.69
60820;BME280;46641;48.904;9.126;2023-05-14T16:49:37;98184.44;;;22.21;48.67
60820;BME280;46641;48.904;9.126;2023-05-14T16:54:27;98181.19;;;22.19;47.64
60820;BME280;46641;48.904;9.126;2023-05-14T16:59:18;98186.59;;;22.12;47.23
60820;BME280;46641;48.904;9.126;2023-05-14T17:04:09;98190.88;;;22.01;47.19
60820;BME280;46641;48.904;9.126;2023-05-14T17:08:59;98197.13;;;21.95;47.91
60820;BME280;46641;48.904;9.126;2023-05-14T17:13:50;98190.84;;;21.89;47.97
60820;BME280;46641;48.904;9.126;2023-05-14T17:18:40;98194.22;;;21.97;47.92
60820;BME280;46641;48.904;9.126;2023-05-14T17:28:21;98195.41;;;22.01;47.73
60820;BME280;46641;48.904;9.126;2023-05-14T17:33:13;98201.53;;;22.01;48.36
60820;BME280;46641;48.904;9.126;2023-05-14T17:38:04;98204.31;;;22.06;48.16
60820;BME280;46641;48.904;9.126;2023-05-14T17:42:54;98203.50;;;22.06;47.43
60820;BME280;46641;48.904;9.126;2023-05-14T17:47:45;98208.59;;;21.96;47.74
60820;BME280;46641;48.904;9.126;2023-05-14T17:52:36;98201.84;;;21.93;47.63
60820;BME280;46641;48.904;9.126;2023-05-14T17:57:27;98201.75;;;21.88;48.01
60820;BME280;46641;48.904;9.126;2023-05-14T18:02:17;98199.28;;;21.86;48.24
60820;BME280;46641;48.904;9.126;2023-05-14T18:07:07;98207.63;;;21.90;48.08
60820;BME280;46641;48.904;9.126;2023-05-14T18:11:58;98204.75;;;21.91;48.68
60820;BME280;46641;48.904;9.126;2023-05-14T18:16:48;98203.34;;;21.89;48.55
60820;BME280;46641;48.904;9.126;2023-05-14T18:21:38;98210.53;;;21.88;48.78
60820;BME280;46641;48.904;9.126;2023-05-14T18:26:29;98210.75;;;21.87;48.50
60820;BME280;46641;48.904;9.126;2023-05-14T18:31:19;98212.06;;;21.84;48.80
60820;BME280;46641;48.904;9.126;2023-05-14T18:36:10;98229.28;;;21.82;48.42
60820;BME280;46641;48.904;9.126;2023-05-14T18:41:00;98221.16;;;21.77;48.68
60820;BME280;46641;48.904;9.126;2023-05-14T18:45:51;98222.41;;;21.74;48.60
60820;BME280;46641;48.904;9.126;2023-05-14T18:50:41;98223.91;;;21.70;48.59
60820;BME280;46641;48.904;9.126;2023-05-14T18:55:31;98219.47;;;21.64;48.73
60820;BME280;46641;48.904;9.126;2023-05-14T19:00:26;98216.69;;;21.59;48.76
60820;BME280;46641;48.904;9.126;2023-05-14T19:05:16;98220.63;;;21.56;48.60
60820;BME280;46641;48.904;9.126;2023-05-14T19:10:07;98221.31;;;21.52;48.30
60820;BME280;46641;48.904;9.126;2023-05-14T19:14:58;98229.75;;;21.49;48.66
60820;BME280;46641;48.904;9.126;2023-05-14T19:19:48;98233.06;;;21.44;49.14
60820;BME280;46641;48.904;9.126;2023-05-14T19:24:39;98242.75;;;21.38;48.83
60820;BME280;46641;48.904;9.126;2023-05-14T19:29:29;98248.31;;;21.37;48.74
60820;BME280;46641;48.904;9.126;2023-05-14T19:34:21;98245.06;;;21.35;48.74
60820;BME280;46641;48.904;9.126;2023-05-14T19:39:11;98251.84;;;21.31;48.80
60820;BME280;46641;48.904;9.126;2023-05-14T19:44:02;98244.28;;;21.28;48.75
60820;BME280;46641;48.904;9.126;2023-05-14T19:48:52;98244.75;;;21.24;48.72
60820;BME280;46641;48.904;9.126;2023-05-14T19:53:42;98251.78;;;21.19;48.80
60820;BME280;46641;48.904;9.126;2023-05-14T19:58:33;98245.25;;;21.15;48.95
60820;BME280;46641;48.904;9.126;2023-05-14T20:03:23;98245.13;;;21.10;48.84
60820;BME280;46641;48.904;9.126;2023-05-14T20:08:16;98252.94;;;21.05;48.74
60820;BME280;46641;48.904;9.126;2023-05-14T20:13:08;98253.03;;;20.98;48.78
60820;BME280;46641;48.904;9.126;2023-05-14T20:17:58;98252.66;;;20.94;49.08
60820;BME280;46641;48.904;9.126;2023-05-14T20:22:48;98245.53;;;20.88;49.08
60820;BME280;46641;48.904;9.126;2023-05-14T20:27:39;98254.19;;;20.84;49.16
60820;BME280;46641;48.904;9.126;2023-05-14T20:32:30;98257.50;;;20.79;49.28
60820;BME280;46641;48.904;9.126;2023-05-14T20:37:20;98257.34;;;20.74;49.30
60820;BME280;46641;48.904;9.126;2023-05-14T20:42:11;98251.25;;;20.67;49.35
60820;BME280;46641;48.904;9.126;2023-05-14T20:47:01;98245.81;;;20.62;49.48
60820;BME280;46641;48.904;9.126;2023-05-14T20:51:51;98236.66;;;20.58;49.63
60820;BME280;46641;48.904;9.126;2023-05-14T20:56:41;98245.50;;;20.51;49.54
60820;BME280;46641;48.904;9.126;2023-05-14T21:01:32;98240.56;;;20.48;49.55
60820;BME280;46641;48.904;9.126;2023-05-14T21:06:22;98242.25;;;20.43;49.67
60820;BME280;46641;48.904;9.126;2023-05-14T21:11:13;98244.53;;;20.39;49.49
60820;BME280;46641;48.904;9.126;2023-05-14T21:16:03;98242.75;;;20.33;49.87
60820;BME280;46641;48.904;9.126;2023-05-14T21:20:54;98245.81;;;20.30;49.72
60820;BME280;46641;48.904;9.126;2023-05-14T21:25:44;98247.72;;;20.23;49.79
60820;BME280;46641;48.904;9.126;2023-05-14T21:30:34;98237.97;;;20.17;49.91
60820;BME280;46641;48.904;9.126;2023-05-14T21:35:24;98235.97;;;20.12;49.96
60820;BME280;46641;48.904;9.126;2023-05-14T21:40:15;98233.13;;;20.07;49.87
60820;BME280;46641;48.904;9.126;2023-05-14T21:45:05;98234.59;;;20.03;50.00
60820;BME280;46641;48.904;9.126;2023-05-14T21:49:56;98226.81;;;20.01;50.00
60820;BME280;46641;48.904;9.126;2023-05-14T21:54:46;98234.03;;;19.94;50.23
60820;BME280;46641;48.904;9.126;2023-05-14T21:59:36;98220.34;;;19.91;50.18
60820;BME280;46641;48.904;9.126;2023-05-14T22:04:27;98226.31;;;19.86;50.24
60820;BME280;46641;48.904;9.126;2023-05-14T22:09:17;98218.16;;;19.81;50.40
60820;BME280;46641;48.904;9.126;2023-05-14T22:14:07;98216.97;;;19.77;50.35
60820;BME280;46641;48.904;9.126;2023-05-14T22:18:57;98232.53;;;19.73;50.42
60820;BME280;46641;48.904;9.126;2023-05-14T22:23:48;98228.06;;;19.67;50.41
60820;BME280;46641;48.904;9.126;2023-05-14T22:28:39;98222.13;;;19.65;50.39
60820;BME280;46641;48.904;9.126;2023-05-14T22:33:31;98218.25;;;19.61;50.58
60820;BME280;46641;48.904;9.126;2023-05-14T22:38:22;98210.94;;;19.56;50.63
60820;BME280;46641;48.904;9.126;2023-05-14T22:43:12;98203.59;;;19.52;50.54
60820;BME280;46641;48.904;9.126;2023-05-14T22:48:03;98201.59;;;19.47;50.46
60820;BME280;46641;48.904;9.126;2023-05-14T22:52:53;98206.28;;;19.45;50.49
60820;BME280;46641;48.904;9.126;2023-05-14T22:57:43;98205.28;;;19.39;50.99
60820;BME280;46641;48.904;9.126;2023-05-14T23:02:33;98210.22;;;19.36;50.84
60820;BME280;46641;48.904;9.126;2023-05-14T23:07:24;98202.66;;;19.33;50.69
60820;BME280;46641;48.904;9.126;2023-05-14T23:12:14;98189.22;;;19.28;50.97
60820;BME280;46641;48.904;9.126;2023-05-14T23:17:04;98190.47;;;19.25;50.89
60820;BME280;46641;48.904;9.126;2023-05-14T23:21:55;98193.75;;;19.21;50.96
60820;BME280;46641;48.904;9.126;2023-05-14T23:26:45;98195.19;;;19.17;50.96
60820;BME280;46641;48.904;9.126;2023-05-14T23:31:36;98195.59;;;19.13;50.85
60820;BME280;46641;48.904;9.126;2023-05-14T23:36:26;98187.47;;;19.08;50.98
60820;BME280;46641;48.904;9.126;2023-05-14T23:41:16;98188.31;;;19.02;50.98
60820;BME280;46641;48.904;9.126;2023-05-14T23:46:07;98191.78;;;18.96;51.16
60820;BME280;46641;48.904;9.126;2023-05-14T23:50:57;98182.63;;;18.92;51.31
60820;BME280;46641;48.904;9.126;2023-05-14T23:55:48;98171.63;;;18.88;51.39
